createdAt,value
2022-12-28T00:01:40.096Z,20.83
2022-12-28T00:04:14.166Z,24.83
2022-12-28T00:06:41.148Z,23.50
2022-12-28T00:09:09.175Z,20.38
2022-12-28T00:11:49.131Z,21.67
2022-12-28T00:14:19.295Z,21.65
2022-12-28T00:16:46.559Z,22.83
2022-12-28T00:19:23.131Z,24.10
2022-12-28T00:21:57.136Z,25.38
2022-12-28T00:24:25.266Z,23.02
2022-12-28T00:26:59.158Z,25.45
2022-12-28T00:29:26.272Z,24.13
2022-12-28T00:32:00.153Z,27.15
2022-12-28T00:34:27.392Z,27.17
2022-12-28T00:37:08.483Z,29.83
2022-12-28T00:39:47.118Z,26.55
2022-12-28T00:42:21.148Z,31.65
2022-12-28T00:44:48.427Z,31.48
2022-12-28T00:47:22.136Z,26.08
2022-12-28T00:49:49.175Z,24.98
2022-12-28T00:52:16.253Z,25.58
2022-12-28T00:54:50.103Z,28.27
2022-12-28T00:57:17.149Z,27.60
2022-12-28T00:59:51.109Z,23.33
2022-12-28T01:02:18.144Z,23.77
2022-12-28T01:04:52.182Z,25.00
2022-12-28T01:07:26.124Z,21.98
2022-12-28T01:09:53.169Z,25.33
2022-12-28T01:12:27.280Z,26.40
2022-12-28T01:14:54.333Z,27.75
2022-12-28T01:17:28.128Z,26.88
2022-12-28T01:19:55.089Z,26.05
2022-12-28T01:22:29.068Z,26.88
2022-12-28T01:24:56.016Z,25.02
2022-12-28T01:27:29.128Z,26.05
2022-12-28T01:29:56.077Z,24.60
2022-12-28T01:32:55.077Z,30.27
2022-12-28T01:35:29.951Z,37.90
2022-12-28T01:38:04.100Z,43.78
2022-12-28T01:40:31.309Z,45.97
2022-12-28T01:43:08.382Z,40.90
2022-12-28T01:45:35.535Z,40.33
2022-12-28T01:48:09.148Z,40.08
2022-12-28T01:50:43.112Z,37.53
2022-12-28T01:53:10.155Z,39.10
2022-12-28T01:55:46.118Z,48.03
2022-12-28T01:58:29.134Z,38.58
2022-12-28T02:00:56.220Z,39.15
2022-12-28T02:03:32.133Z,39.65
2022-12-28T02:06:00.875Z,31.75
2022-12-28T02:08:43.080Z,34.03
2022-12-28T02:11:12.912Z,37.38
2022-12-28T02:13:46.110Z,38.03
2022-12-28T02:16:13.247Z,33.35
2022-12-28T02:18:40.748Z,36.95
2022-12-28T02:22:11.115Z,39.03
2022-12-28T02:24:46.809Z,39.83
2022-12-28T02:28:11.388Z,31.15
2022-12-28T02:30:44.340Z,30.75
2022-12-28T02:34:21.127Z,25.10
2022-12-28T02:36:55.437Z,30.52
2022-12-28T02:39:39.117Z,28.20
2022-12-28T02:42:13.494Z,31.05
2022-12-28T02:44:47.140Z,29.40
2022-12-28T02:47:15.886Z,30.50
2022-12-28T02:49:49.122Z,30.08
2022-12-28T02:52:43.777Z,31.63
2022-12-28T02:55:38.187Z,30.88
2022-12-28T02:58:25.876Z,31.77
2022-12-28T03:01:24.297Z,27.05
2022-12-28T03:04:09.675Z,29.80
2022-12-28T03:07:25.131Z,29.33
2022-12-28T03:10:10.228Z,30.10
2022-12-28T03:12:57.134Z,30.05
2022-12-28T03:15:34.663Z,33.40
2022-12-28T03:18:23.138Z,33.30
2022-12-28T03:20:50.176Z,32.55
2022-12-28T03:23:25.165Z,31.15
2022-12-28T03:25:59.251Z,32.95
2022-12-28T03:28:34.194Z,29.98
2022-12-28T03:31:04.480Z,29.27
2022-12-28T03:33:38.171Z,28.58
2022-12-28T03:36:23.451Z,30.23
2022-12-28T03:38:57.248Z,27.63
2022-12-28T03:41:54.927Z,30.30
2022-12-28T03:44:31.120Z,30.98
2022-12-28T03:47:25.155Z,29.13
2022-12-28T03:50:05.381Z,31.30
2022-12-28T03:52:32.673Z,30.35
2022-12-28T03:54:59.818Z,29.02
2022-12-28T03:57:34.214Z,30.98
2022-12-28T04:00:01.279Z,28.90
2022-12-28T04:02:35.216Z,30.75
2022-12-28T04:05:02.323Z,30.88
2022-12-28T04:07:36.192Z,28.85
2022-12-28T04:10:03.360Z,30.40
2022-12-28T04:12:37.212Z,29.08
2022-12-28T04:15:05.652Z,30.95
2022-12-28T04:17:39.328Z,30.05
2022-12-28T04:20:07.298Z,30.55
2022-12-28T04:22:41.283Z,33.47
2022-12-28T04:25:15.169Z,29.35
2022-12-28T04:27:42.280Z,34.78
2022-12-28T04:30:16.395Z,31.52
2022-12-28T04:32:43.581Z,34.97
2022-12-28T04:35:17.243Z,31.48
2022-12-28T04:37:44.283Z,32.15
2022-12-28T04:40:18.205Z,32.08
2022-12-28T04:42:45.197Z,29.15
2022-12-28T04:45:22.244Z,32.63
2022-12-28T04:47:49.625Z,29.45
2022-12-28T04:50:23.213Z,26.85
2022-12-28T04:52:57.154Z,27.50
2022-12-28T04:55:32.760Z,25.80
2022-12-28T04:58:07.154Z,25.40
2022-12-28T05:00:37.437Z,28.58
2022-12-28T05:03:04.905Z,29.20
2022-12-28T05:05:38.194Z,25.05
2022-12-28T05:08:12.247Z,27.45
2022-12-28T05:10:39.384Z,27.25
2022-12-28T05:13:13.292Z,26.65
2022-12-28T05:15:40.292Z,24.42
2022-12-28T05:18:14.293Z,25.83
2022-12-28T05:20:41.318Z,21.45
2022-12-28T05:23:08.379Z,24.55
2022-12-28T05:25:42.157Z,19.98
2022-12-28T05:28:15.257Z,19.83
2022-12-28T05:30:42.214Z,21.15
2022-12-28T05:33:09.243Z,19.45
2022-12-28T05:35:43.236Z,19.33
2022-12-28T05:38:10.381Z,19.38
2022-12-28T05:40:44.163Z,19.35
2022-12-28T05:43:11.233Z,20.27
2022-12-28T05:45:38.237Z,21.88
2022-12-28T05:48:12.302Z,18.52
2022-12-28T05:50:39.451Z,20.60
2022-12-28T05:53:13.236Z,20.35
2022-12-28T05:55:40.382Z,21.42
2022-12-28T05:58:14.205Z,22.15
2022-12-28T06:00:41.308Z,20.63
2022-12-28T06:03:15.409Z,47.45
2022-12-28T06:05:49.278Z,31.77
2022-12-28T06:08:22.850Z,19.60
2022-12-28T06:10:56.249Z,18.85
2022-12-28T06:13:23.344Z,21.23
2022-12-28T06:15:57.314Z,28.35
2022-12-28T06:18:31.252Z,26.40
2022-12-28T06:21:17.301Z,25.02
2022-12-28T06:23:44.533Z,26.75
2022-12-28T06:26:23.274Z,29.48
2022-12-28T06:29:03.240Z,29.65
2022-12-28T06:31:35.117Z,27.27
2022-12-28T06:34:10.227Z,27.55
2022-12-28T06:36:39.796Z,24.48
2022-12-28T06:39:09.083Z,22.52
2022-12-28T06:41:43.241Z,19.17
2022-12-28T06:44:18.295Z,22.08
2022-12-28T06:46:45.381Z,24.55
2022-12-28T06:49:19.310Z,21.70
2022-12-28T06:51:46.340Z,23.95
2022-12-28T06:54:13.412Z,21.95
2022-12-28T06:56:47.269Z,35.58
2022-12-28T06:59:14.267Z,39.92
2022-12-28T07:01:49.331Z,60.65
2022-12-28T07:04:16.563Z,70.25
2022-12-28T07:06:50.297Z,63.78
2022-12-28T07:09:17.395Z,50.83
2022-12-28T07:11:44.796Z,38.20
2022-12-28T07:14:18.248Z,36.45
2022-12-28T07:16:45.255Z,37.05
2022-12-28T07:19:12.346Z,34.40
2022-12-28T07:21:46.285Z,35.00
2022-12-28T07:24:13.284Z,35.28
2022-12-28T07:26:47.441Z,35.38
2022-12-28T07:29:14.423Z,34.88
2022-12-28T07:31:48.264Z,38.25
2022-12-28T07:34:15.586Z,41.17
2022-12-28T07:36:42.598Z,43.00
2022-12-28T07:39:16.250Z,39.75
2022-12-28T07:41:45.327Z,43.53
2022-12-28T07:44:19.331Z,45.92
2022-12-28T07:46:46.555Z,50.53
2022-12-28T07:49:20.340Z,51.55
2022-12-28T07:51:47.605Z,61.90
2022-12-28T07:54:21.357Z,54.35
2022-12-28T07:56:48.293Z,47.00
2022-12-28T07:59:27.423Z,42.58
2022-12-28T08:01:58.024Z,45.97
2022-12-28T08:04:31.313Z,42.38
2022-12-28T08:06:58.427Z,37.75
2022-12-28T08:09:32.248Z,34.72
2022-12-28T08:11:59.261Z,27.05
2022-12-28T08:14:33.259Z,30.23
2022-12-28T08:17:00.312Z,27.60
2022-12-28T08:19:34.335Z,28.40
2022-12-28T08:22:08.345Z,31.80
2022-12-28T08:24:35.331Z,36.10
2022-12-28T08:27:02.348Z,36.38
2022-12-28T08:29:36.278Z,33.08
2022-12-28T08:32:10.341Z,33.58
2022-12-28T08:34:37.364Z,28.73
2022-12-28T08:37:11.298Z,21.58
2022-12-28T08:39:38.251Z,20.33
2022-12-28T08:42:11.288Z,20.05
2022-12-28T08:44:38.262Z,19.02
2022-12-28T08:47:12.362Z,19.95
2022-12-28T08:49:39.412Z,20.00
2022-12-28T08:52:13.237Z,22.13
2022-12-28T08:54:40.206Z,23.83
2022-12-28T08:57:13.282Z,31.65
2022-12-28T08:59:40.679Z,23.80
2022-12-28T09:02:14.559Z,20.13
2022-12-28T09:04:42.051Z,20.38
2022-12-28T09:07:08.986Z,19.08
2022-12-28T09:09:42.403Z,22.45
2022-12-28T09:12:09.402Z,20.77
2022-12-28T09:14:43.331Z,18.40
2022-12-28T09:17:10.241Z,21.33
2022-12-28T09:19:43.266Z,20.15
2022-12-28T09:22:10.228Z,19.23
2022-12-28T09:24:37.215Z,19.55
2022-12-28T09:27:10.367Z,22.55
2022-12-28T09:29:37.399Z,22.73
2022-12-28T09:32:11.283Z,22.77
2022-12-28T09:34:44.337Z,23.90
2022-12-28T09:37:11.322Z,23.50
2022-12-28T09:39:38.373Z,24.15
2022-12-28T09:42:22.327Z,27.98
2022-12-28T09:45:09.885Z,33.03
2022-12-28T09:47:54.346Z,29.02
2022-12-28T09:50:27.056Z,23.73
2022-12-28T09:53:33.265Z,18.83
2022-12-28T09:56:39.678Z,20.83
2022-12-28T09:59:13.321Z,20.45
2022-12-28T10:01:40.367Z,19.10
2022-12-28T10:04:07.416Z,21.17
2022-12-28T10:06:41.357Z,19.02
2022-12-28T10:09:15.118Z,27.00
2022-12-28T10:11:49.253Z,24.10
2022-12-28T10:14:30.125Z,22.67
2022-12-28T10:17:03.321Z,23.23
2022-12-28T10:19:30.267Z,25.38
2022-12-28T10:22:12.310Z,21.98
2022-12-28T10:24:39.873Z,21.27
2022-12-28T10:27:15.342Z,19.33
2022-12-28T10:29:42.231Z,19.20
2022-12-28T10:32:16.444Z,19.98
2022-12-28T10:35:00.889Z,19.80
2022-12-28T10:37:39.297Z,17.30
2022-12-28T10:40:18.521Z,17.83
2022-12-28T10:42:52.323Z,17.35
2022-12-28T10:45:43.346Z,16.80
2022-12-28T10:48:29.405Z,18.55
2022-12-28T10:51:25.588Z,19.02
2022-12-28T10:54:01.347Z,17.08
2022-12-28T10:56:39.363Z,19.27
2022-12-28T10:59:12.390Z,18.50
2022-12-28T11:01:47.503Z,19.75
2022-12-28T11:04:29.394Z,17.77
2022-12-28T11:07:05.378Z,19.85
2022-12-28T11:09:40.342Z,17.73
2022-12-28T11:12:46.477Z,19.55
2022-12-28T11:15:19.064Z,16.92
2022-12-28T11:18:01.380Z,15.40
2022-12-28T11:20:41.327Z,17.20
2022-12-28T11:23:08.743Z,17.40
2022-12-28T11:25:43.368Z,21.70
2022-12-28T11:28:19.030Z,21.42
2022-12-28T11:30:56.347Z,19.58
2022-12-28T11:33:32.874Z,20.27
2022-12-28T11:36:10.058Z,18.55
2022-12-28T11:38:45.466Z,19.17
2022-12-28T11:41:56.357Z,19.52
2022-12-28T11:44:31.054Z,17.95
2022-12-28T11:47:12.355Z,18.73
2022-12-28T11:49:39.257Z,19.83
2022-12-28T11:52:24.346Z,17.90
2022-12-28T11:54:58.132Z,21.90
2022-12-28T11:57:50.346Z,20.52
2022-12-28T12:00:21.850Z,20.13
2022-12-28T12:03:02.463Z,20.65
2022-12-28T12:05:38.459Z,20.83
2022-12-28T12:08:23.332Z,21.30
2022-12-28T12:11:25.614Z,20.70
2022-12-28T12:13:59.375Z,19.70
2022-12-28T12:17:16.170Z,18.10
2022-12-28T12:19:55.390Z,16.67
2022-12-28T12:22:27.908Z,17.55
2022-12-28T12:25:45.460Z,17.33
2022-12-28T12:28:41.367Z,16.23
2022-12-28T12:31:13.424Z,17.17
2022-12-28T12:33:50.327Z,17.08
2022-12-28T12:36:40.473Z,16.75
2022-12-28T12:39:33.397Z,19.35
2022-12-28T12:42:36.022Z,17.63
2022-12-28T12:45:42.411Z,22.13
2022-12-28T12:48:46.357Z,15.75
2022-12-28T12:51:34.400Z,17.05
2022-12-28T12:54:40.772Z,16.90
2022-12-28T12:57:33.356Z,18.10
2022-12-28T13:00:17.498Z,16.67
2022-12-28T13:02:57.463Z,17.80
2022-12-28T13:05:26.812Z,18.25
2022-12-28T13:08:00.366Z,19.33
2022-12-28T13:10:42.363Z,19.90
2022-12-28T13:13:35.356Z,20.00
2022-12-28T13:16:05.309Z,20.77
2022-12-28T13:18:47.564Z,23.05
2022-12-28T13:21:26.413Z,20.17
2022-12-28T13:23:53.490Z,20.45
2022-12-28T13:26:34.361Z,22.52
2022-12-28T13:29:10.504Z,20.80
2022-12-28T13:31:40.996Z,22.52
2022-12-28T13:34:33.449Z,21.60
2022-12-28T13:37:12.931Z,19.25
2022-12-28T13:39:46.427Z,20.00
2022-12-28T13:42:32.451Z,22.00
2022-12-28T13:45:06.081Z,24.05
2022-12-28T13:47:43.434Z,25.00
2022-12-28T13:50:24.409Z,23.58
2022-12-28T13:52:56.043Z,19.80
2022-12-28T13:55:35.408Z,20.92
2022-12-28T13:58:05.294Z,19.23
2022-12-28T14:00:32.180Z,21.65
2022-12-28T14:03:05.450Z,19.63
2022-12-28T14:05:32.442Z,19.25
2022-12-28T14:08:06.451Z,19.42
2022-12-28T14:10:33.431Z,18.70
2022-12-28T14:13:00.337Z,20.15
2022-12-28T14:15:40.621Z,19.05
2022-12-28T14:18:14.446Z,20.25
2022-12-28T14:21:01.399Z,21.27
2022-12-28T14:23:33.795Z,17.15
2022-12-28T14:26:12.409Z,22.40
2022-12-28T14:28:50.788Z,21.90
2022-12-28T14:31:36.429Z,27.10
2022-12-28T14:34:05.218Z,23.58
2022-12-28T14:36:55.405Z,21.42
2022-12-28T14:39:31.123Z,21.15
2022-12-28T14:42:05.443Z,23.48
2022-12-28T14:44:52.543Z,21.05
2022-12-28T14:47:45.510Z,18.25
2022-12-28T14:50:32.433Z,18.52
2022-12-28T14:53:15.905Z,18.92
2022-12-28T14:56:10.439Z,18.33
2022-12-28T14:58:57.424Z,21.13
2022-12-28T15:01:25.196Z,33.38
2022-12-28T15:04:08.446Z,44.58
2022-12-28T15:06:35.392Z,46.15
2022-12-28T15:09:08.460Z,40.75
2022-12-28T15:11:35.405Z,38.75
2022-12-28T15:14:08.420Z,32.47
2022-12-28T15:16:35.393Z,33.72
2022-12-28T15:19:09.471Z,31.85
2022-12-28T15:21:42.413Z,34.55
2022-12-28T15:24:09.355Z,41.67
2022-12-28T15:26:42.444Z,39.00
2022-12-28T15:29:09.298Z,32.28
2022-12-28T15:31:42.521Z,29.75
2022-12-28T15:34:09.450Z,27.25
2022-12-28T15:36:36.327Z,30.70
2022-12-28T15:39:10.504Z,33.65
2022-12-28T15:41:37.428Z,43.08
2022-12-28T15:44:04.762Z,47.13
2022-12-28T15:46:38.564Z,51.22
2022-12-28T15:49:06.437Z,48.22
2022-12-28T15:51:39.529Z,36.70
2022-12-28T15:54:06.737Z,39.65
2022-12-28T15:56:42.505Z,37.97
2022-12-28T15:59:14.497Z,32.13
2022-12-28T16:01:49.687Z,35.70
2022-12-28T16:04:16.754Z,40.22
2022-12-28T16:06:45.115Z,39.42
2022-12-28T16:09:19.511Z,42.25
2022-12-28T16:11:51.497Z,44.17
2022-12-28T16:14:35.485Z,42.25
2022-12-28T16:17:08.478Z,36.78
2022-12-28T16:19:35.458Z,37.17
2022-12-28T16:22:08.488Z,34.63
2022-12-28T16:24:41.495Z,35.20
2022-12-28T16:27:14.544Z,33.20
2022-12-28T16:29:58.667Z,35.63
2022-12-28T16:32:32.556Z,35.45
2022-12-28T16:35:05.558Z,33.22
2022-12-28T16:37:38.553Z,33.30
2022-12-28T16:40:06.469Z,35.08
2022-12-28T16:42:39.482Z,36.08
2022-12-28T16:45:13.548Z,32.00
2022-12-28T16:47:44.673Z,33.92
2022-12-28T16:50:18.491Z,38.90
2022-12-28T16:52:45.397Z,41.88
2022-12-28T16:55:18.539Z,45.67
2022-12-28T16:57:45.971Z,52.33
2022-12-28T17:00:13.454Z,48.03
2022-12-28T17:02:46.718Z,49.28
2022-12-28T17:05:20.502Z,45.90
2022-12-28T17:07:47.793Z,50.60
2022-12-28T17:10:15.029Z,55.25
2022-12-28T17:12:48.588Z,54.50
2022-12-28T17:15:22.556Z,57.45
2022-12-28T17:17:49.470Z,64.63
2022-12-28T17:20:22.522Z,65.20
2022-12-28T17:22:49.423Z,74.25
2022-12-28T17:25:22.563Z,64.05
2022-12-28T17:27:49.441Z,53.17
2022-12-28T17:30:16.398Z,45.42
2022-12-28T17:32:50.560Z,47.88
2022-12-28T17:35:17.475Z,38.60
2022-12-28T17:37:50.525Z,37.20
2022-12-28T17:40:24.532Z,40.65
2022-12-28T17:42:51.447Z,55.65
2022-12-28T17:45:18.287Z,78.35
2022-12-28T17:47:51.530Z,71.50
2022-12-28T17:50:24.538Z,81.38
2022-12-28T17:52:51.463Z,73.22
2022-12-28T17:55:18.351Z,55.75
2022-12-28T17:57:51.548Z,46.10
2022-12-28T18:00:18.818Z,41.10
2022-12-28T18:02:52.621Z,37.17
2022-12-28T18:05:26.559Z,37.78
2022-12-28T18:07:53.461Z,33.38
2022-12-28T18:10:20.365Z,31.75
2022-12-28T18:12:53.572Z,30.63
2022-12-28T18:15:20.472Z,30.58
2022-12-28T18:17:47.411Z,29.60
2022-12-28T18:20:20.612Z,27.38
2022-12-28T18:22:53.586Z,24.50
2022-12-28T18:25:20.465Z,28.67
2022-12-28T18:27:53.571Z,24.88
2022-12-28T18:30:26.588Z,25.70
2022-12-28T18:32:53.444Z,23.60
2022-12-28T18:35:20.344Z,26.88
2022-12-28T18:37:54.592Z,27.00
2022-12-28T18:40:21.497Z,26.88
2022-12-28T18:42:48.355Z,26.65
2022-12-28T18:45:21.627Z,24.42
2022-12-28T18:47:48.485Z,26.48
2022-12-28T18:50:15.401Z,29.10
2022-12-28T18:52:48.543Z,27.80
2022-12-28T18:55:15.493Z,26.35
2022-12-28T18:57:48.579Z,26.17
2022-12-28T19:00:22.604Z,31.05
2022-12-28T19:02:52.902Z,32.92
2022-12-28T19:05:26.544Z,33.15
2022-12-28T19:07:53.464Z,37.28
2022-12-28T19:10:26.563Z,35.22
2022-12-28T19:12:53.457Z,41.03
2022-12-28T19:15:26.568Z,40.65
2022-12-28T19:17:53.421Z,37.95
2022-12-28T19:20:26.627Z,45.45
2022-12-28T19:23:00.632Z,44.58
2022-12-28T19:25:27.630Z,39.28
2022-12-28T19:28:00.622Z,38.05
2022-12-28T19:30:33.569Z,37.53
2022-12-28T19:33:00.426Z,40.05
2022-12-28T19:35:33.612Z,41.45
2022-12-28T19:38:00.563Z,43.22
2022-12-28T19:40:33.617Z,43.80
2022-12-28T19:43:06.573Z,38.20
2022-12-28T19:45:33.467Z,37.42
2022-12-28T19:48:06.621Z,37.25
2022-12-28T19:50:33.528Z,40.55
2022-12-28T19:53:00.561Z,34.67
2022-12-28T19:55:33.624Z,38.33
2022-12-28T19:58:01.590Z,38.22
2022-12-28T20:00:34.666Z,35.95
2022-12-28T20:03:08.796Z,33.83
2022-12-28T20:05:42.591Z,36.63
2022-12-28T20:08:10.048Z,32.10
2022-12-28T20:10:37.269Z,33.85
2022-12-28T20:13:10.618Z,36.13
2022-12-28T20:15:41.912Z,29.88
2022-12-28T20:18:15.634Z,31.08
2022-12-28T20:21:17.994Z,35.75
2022-12-28T20:23:36.685Z,40.05
2022-12-28T20:26:10.633Z,50.33
2022-12-28T20:28:37.647Z,48.10
2022-12-28T20:31:06.903Z,49.85
2022-12-28T20:33:43.630Z,37.20
2022-12-28T20:36:19.167Z,37.28
2022-12-28T20:38:52.669Z,29.52
2022-12-28T20:41:22.799Z,28.50
2022-12-28T20:43:56.666Z,26.65
2022-12-28T20:46:23.739Z,25.25
2022-12-28T20:48:57.615Z,32.67
2022-12-28T20:51:24.916Z,33.15
2022-12-28T20:53:51.856Z,32.70
2022-12-28T20:56:25.646Z,31.27
2022-12-28T20:58:53.902Z,48.42
2022-12-28T21:01:27.725Z,84.20
2022-12-28T21:03:54.845Z,108.40
2022-12-28T21:06:28.690Z,70.85
2022-12-28T21:09:01.645Z,55.95
2022-12-28T21:11:34.617Z,58.45
2022-12-28T21:14:01.614Z,50.63
2022-12-28T21:16:34.737Z,41.05
2022-12-28T21:19:01.784Z,41.08
2022-12-28T21:21:35.654Z,33.78
2022-12-28T21:24:03.566Z,34.20
2022-12-28T21:26:36.710Z,33.65
2022-12-28T21:29:03.601Z,36.15
2022-12-28T21:31:36.682Z,33.42
2022-12-28T21:34:03.692Z,35.17
2022-12-28T21:36:37.690Z,31.90
2022-12-28T21:39:04.915Z,32.63
2022-12-28T21:41:38.664Z,36.00
2022-12-28T21:44:11.347Z,35.88
2022-12-28T21:46:45.701Z,35.58
2022-12-28T21:49:12.798Z,39.45
2022-12-28T21:51:39.743Z,39.20
2022-12-28T21:54:17.714Z,37.47
2022-12-28T21:56:46.216Z,36.70
2022-12-28T21:59:26.681Z,38.55
2022-12-28T22:01:54.106Z,49.83
2022-12-28T22:04:29.094Z,59.83
2022-12-28T22:06:56.136Z,78.15
2022-12-28T22:09:23.134Z,88.20
2022-12-28T22:11:57.812Z,57.55
2022-12-28T22:14:24.855Z,47.03
2022-12-28T22:16:58.672Z,39.08
2022-12-28T22:19:25.753Z,46.08
2022-12-28T22:21:58.777Z,45.92
2022-12-28T22:24:26.330Z,48.72
2022-12-28T22:26:59.738Z,45.10
2022-12-28T22:29:33.776Z,44.90
2022-12-28T22:32:00.704Z,48.60
2022-12-28T22:34:34.727Z,45.70
2022-12-28T22:37:01.858Z,48.85
2022-12-28T22:39:35.779Z,46.70
2022-12-28T22:42:03.143Z,46.58
2022-12-28T22:44:36.839Z,52.25
2022-12-28T22:47:04.437Z,57.88
2022-12-28T22:49:37.732Z,63.72
2022-12-28T22:52:05.085Z,68.88
2022-12-28T22:54:42.793Z,80.93
2022-12-28T22:57:09.982Z,107.22
2022-12-28T22:59:37.150Z,80.78
2022-12-28T23:02:11.006Z,69.25
2022-12-28T23:04:38.299Z,65.55
2022-12-28T23:07:11.769Z,83.22
2022-12-28T23:09:44.936Z,74.53
2022-12-28T23:12:25.859Z,65.15
2022-12-28T23:15:03.763Z,54.25
2022-12-28T23:17:37.787Z,43.80
2022-12-28T23:20:05.480Z,39.33
2022-12-28T23:22:40.782Z,38.90
2022-12-28T23:25:14.112Z,35.78
2022-12-28T23:27:49.819Z,36.78
2022-12-28T23:30:20.215Z,37.97
2022-12-28T23:32:58.770Z,34.55
2022-12-28T23:35:26.468Z,37.97
2022-12-28T23:37:59.991Z,39.10
2022-12-28T23:40:27.200Z,33.60
2022-12-28T23:42:56.756Z,31.85
2022-12-28T23:45:30.808Z,35.42
2022-12-28T23:47:58.095Z,35.25
2022-12-28T23:50:31.797Z,35.60
2022-12-28T23:53:05.816Z,32.47
2022-12-28T23:55:32.932Z,36.90
